Time;durP1;ratioP1;P1;durP2;ratioP2;P2;SDS_P1;SDS_P2;PMS_P1;PMS_P2;Temp;Humidity;BMP_temperature;BMP_pressure;BME280_temperature;BME280_humidity;BME280_pressure;Samples;Min_cycle;Max_cycle;Signal;HPM_P1;HPM_P2
2023/06/15 00:04:02;;;;;;;6.95;2.97;;;;;;;16.73;55.11;99702.06;7791648;32;37043;-80
2023/06/15 00:08:19;;;;;;;4.82;3.10;;;;;;;16.63;55.69;99702.34;7791284;32;40119;-78
2023/06/15 00:12:35;;;;;;;8.82;3.35;;;;;;;16.47;56.20;99699.97;7791528;32;39761;-79
2023/06/15 00:16:55;;;;;;;6.25;3.72;;;;;;;16.61;55.93;99690.81;7791389;32;37946;-79
2023/06/15 00:21:13;;;;;;;7.72;3.47;;;;;;;16.75;55.29;99688.81;7791377;32;37253;-79
2023/06/15 00:25:32;;;;;;;7.40;3.62;;;;;;;16.71;55.05;99690.53;7791008;32;41483;-79
2023/06/15 00:29:48;;;;;;;3.42;2.67;;;;;;;16.60;55.16;99695.50;7790945;32;40025;-78
2023/06/15 00:34:05;;;;;;;8.85;3.45;;;;;;;16.68;55.07;99693.94;7790920;32;38714;-79
2023/06/15 00:38:21;;;;;;;4.85;3.03;;;;;;;16.44;55.67;99689.59;7790946;32;38712;-79
2023/06/15 00:42:38;;;;;;;5.60;2.92;;;;;;;16.37;55.99;99683.72;7776464;32;40084;-78
2023/06/15 00:46:55;;;;;;;5.95;3.60;;;;;;;16.58;55.27;99683.19;7790587;32;40002;-78
2023/06/15 00:51:11;;;;;;;9.07;3.78;;;;;;;16.40;55.82;99693.25;7776642;32;37675;-78
2023/06/15 00:55:28;;;;;;;7.37;3.42;;;;;;;16.17;57.46;99700.72;7791667;32;37011;-79
2023/06/15 00:59:44;;;;;;;4.93;3.10;;;;;;;16.21;57.07;99694.28;7793906;32;39494;-78
2023/06/15 01:04:01;;;;;;;6.18;3.37;;;;;;;16.07;57.56;99708.06;7794052;32;39659;-78
2023/06/15 01:08:20;;;;;;;6.80;3.22;;;;;;;16.41;56.31;99701.22;7793672;32;37967;-77
2023/06/15 01:12:40;;;;;;;7.93;3.33;;;;;;;16.29;56.18;99689.97;7780124;32;37566;-78
2023/06/15 01:17:02;;;;;;;5.30;3.20;;;;;;;16.00;57.25;99693.94;7780084;32;38003;-78
2023/06/15 01:21:19;;;;;;;6.37;3.40;;;;;;;16.10;57.13;99685.44;7779875;32;40037;-73
2023/06/15 01:25:44;;;;;;;7.65;3.65;;;;;;;16.27;56.64;99679.28;7793620;32;37561;-79
2023/06/15 01:30:03;;;;;;;5.62;3.22;;;;;;;16.40;56.61;99677.59;7779890;32;37810;-79
2023/06/15 01:34:20;;;;;;;6.82;3.45;;;;;;;16.21;57.17;99676.94;7779585;32;39308;-77
2023/06/15 01:38:36;;;;;;;5.40;3.35;;;;;;;16.12;57.18;99674.13;7793329;32;39950;-78
2023/06/15 01:42:53;;;;;;;7.95;3.87;;;;;;;15.98;57.71;99676.94;7793290;32;38736;-79
2023/06/15 01:47:09;;;;;;;6.22;3.37;;;;;;;16.03;57.59;99679.56;7779545;32;36762;-79
2023/06/15 01:51:26;;;;;;;6.53;3.70;;;;;;;16.09;57.51;99683.84;7793037;32;40157;-79
2023/06/15 01:55:42;;;;;;;7.80;3.45;;;;;;;15.67;58.98;99674.03;7793269;32;40868;-78
2023/06/15 01:59:58;;;;;;;10.13;3.40;;;;;;;15.70;58.88;99681.69;7793111;32;37929;-79
2023/06/15 02:04:15;;;;;;;6.03;3.47;;;;;;;15.62;58.87;99691.44;7793192;32;37120;-79
2023/06/15 02:08:32;;;;;;;5.37;3.28;;;;;;;15.99;57.09;99678.56;7792760;32;39834;-79
2023/06/15 02:12:48;;;;;;;5.35;3.40;;;;;;;15.63;57.77;99687.59;7793098;32;39781;-78
2023/06/15 02:17:05;;;;;;;6.72;3.35;;;;;;;15.58;57.87;99687.69;7792749;32;37863;-78
2023/06/15 02:21:21;;;;;;;4.50;2.97;;;;;;;15.43;58.31;99688.03;7792935;32;36718;-79
2023/06/15 02:25:38;;;;;;;6.90;3.67;;;;;;;15.46;57.94;99692.91;7778615;32;39487;-80
2023/06/15 02:29:55;;;;;;;5.43;3.37;;;;;;;15.49;57.65;99686.81;7792512;32;40856;-79
2023/06/15 02:34:11;;;;;;;7.03;3.78;;;;;;;15.32;58.24;99690.16;7792467;32;37703;-79
2023/06/15 02:38:28;;;;;;;5.18;3.33;;;;;;;15.35;57.88;99706.84;7792931;32;37974;-80
2023/06/15 02:42:44;;;;;;;8.30;3.67;;;;;;;15.45;57.51;99696.75;7792605;32;40604;-78
2023/06/15 02:47:00;;;;;;;9.60;3.70;;;;;;;15.58;56.53;99695.94;7792643;32;40080;-79
2023/06/15 02:51:20;;;;;;;5.68;3.08;;;;;;;15.36;57.30;99702.97;7792654;32;37534;-78
2023/06/15 02:55:37;;;;;;;7.22;3.92;;;;;;;15.30;57.64;99695.97;7792596;32;38531;-78
2023/06/15 02:59:53;;;;;;;7.18;3.33;;;;;;;15.28;58.04;99695.47;7792325;32;39893;-79
2023/06/15 03:04:13;;;;;;;5.97;3.67;;;;;;;15.42;57.77;99694.63;7792367;32;40766;-79
2023/06/15 03:08:31;;;;;;;6.05;3.35;;;;;;;15.47;57.73;99695.34;7792421;32;38010;-79
2023/06/15 03:12:48;;;;;;;6.53;3.90;;;;;;;15.33;58.21;99694.53;7792475;32;36336;-78
2023/06/15 03:17:09;;;;;;;5.70;3.42;;;;;;;15.40;58.09;99689.44;7791361;32;39485;-78
2023/06/15 03:21:26;;;;;;;7.00;3.62;;;;;;;15.03;60.04;99705.81;7791560;32;38170;-78
2023/06/15 03:25:44;;;;;;;6.20;3.70;;;;;;;15.24;59.15;99704.59;7792026;32;38085;-78
2023/06/15 03:30:01;;;;;;;6.65;3.58;;;;;;;15.10;59.11;99710.09;7791740;32;37008;-78
2023/06/15 03:34:17;;;;;;;6.30;3.53;;;;;;;15.22;58.60;99715.91;7792162;32;40139;-79
2023/06/15 03:38:34;;;;;;;5.68;3.62;;;;;;;15.27;58.58;99725.97;7791982;32;40760;-79
2023/06/15 03:42:50;;;;;;;7.70;3.80;;;;;;;15.34;58.45;99729.13;7791903;32;37996;-78
2023/06/15 03:47:07;;;;;;;5.03;3.40;;;;;;;15.42;58.05;99731.16;7792109;32;36991;-79
2023/06/15 03:51:23;;;;;;;5.70;3.62;;;;;;;15.32;58.55;99734.13;7791975;32;40149;-80
2023/06/15 03:55:40;;;;;;;7.00;3.85;;;;;;;15.30;58.76;99725.38;7791845;32;40760;-78
2023/06/15 03:59:56;;;;;;;6.53;3.67;;;;;;;15.34;58.96;99724.44;7777699;32;38710;-78
2023/06/15 04:04:14;;;;;;;9.05;3.50;;;;;;;15.29;59.31;99721.78;7791298;32;38084;-79
2023/06/15 04:08:32;;;;;;;6.90;3.58;;;;;;;15.43;59.14;99727.28;7791818;32;39373;-78
2023/06/15 04:12:48;;;;;;;6.15;3.50;;;;;;;15.32;59.62;99729.44;7791512;32;40099;-79
2023/06/15 04:17:05;;;;;;;5.57;3.40;;;;;;;15.43;59.36;99729.22;7791141;32;37593;-78
2023/06/15 04:21:21;;;;;;;7.35;3.55;;;;;;;15.64;58.77;99727.66;7791264;32;37917;-78
2023/06/15 04:25:40;;;;;;;6.75;3.85;;;;;;;15.79;58.67;99731.25;7791368;32;40035;-78
2023/06/15 04:29:57;;;;;;;6.10;3.55;;;;;;;15.76;58.80;99730.75;7790693;32;39983;-78
2023/06/15 04:34:15;;;;;;;6.85;3.83;;;;;;;15.98;57.78;99734.69;7790996;32;37993;-78
2023/06/15 04:38:32;;;;;;;4.80;3.60;;;;;;;15.95;58.11;99738.03;7791010;32;36369;-78
2023/06/15 04:42:48;;;;;;;6.40;3.78;;;;;;;16.02;58.25;99737.62;7790710;32;39374;-78
2023/06/15 04:47:05;;;;;;;7.50;3.83;;;;;;;16.22;57.76;99736.34;7790657;32;40094;-78
2023/06/15 04:51:21;;;;;;;7.95;3.70;;;;;;;16.30;57.67;99724.59;7789215;32;37600;-78
2023/06/15 04:55:38;;;;;;;5.78;3.45;;;;;;;16.35;57.98;99727.25;7790538;32;36973;-76
2023/06/15 04:59:54;;;;;;;6.28;3.33;;;;;;;16.55;57.98;99734.16;7789951;32;39452;-78
2023/06/15 05:04:10;;;;;;;5.97;3.60;;;;;;;16.81;57.70;99737.09;7790218;32;41733;-79
2023/06/15 05:08:27;;;;;;;5.65;3.60;;;;;;;16.77;57.57;99736.09;7789456;32;38442;-79
2023/06/15 05:12:44;;;;;;;6.75;3.78;;;;;;;16.92;56.90;99734.09;7790066;32;37869;-78
2023/06/15 05:17:03;;;;;;;6.30;3.60;;;;;;;16.98;56.78;99746.62;7789940;32;40180;-78
2023/06/15 05:21:19;;;;;;;7.25;3.58;;;;;;;17.15;56.49;99738.44;7789991;32;39768;-79
2023/06/15 05:25:35;;;;;;;8.32;3.65;;;;;;;17.32;56.00;99745.16;7789313;32;37974;-79
2023/06/15 05:29:52;;;;;;;7.60;4.05;;;;;;;17.52;55.28;99747.31;7789515;32;37806;-77
2023/06/15 05:34:08;;;;;;;6.70;3.97;;;;;;;17.60;55.15;99751.25;7789567;32;40192;-78
2023/06/15 05:38:25;;;;;;;7.25;3.85;;;;;;;17.79;55.03;99750.97;7789010;32;40945;-80
2023/06/15 05:42:42;;;;;;;12.75;4.00;;;;;;;17.99;55.05;99755.91;7778328;32;38022;-81
2023/06/15 05:46:59;;;;;;;6.97;3.37;;;;;;;17.95;55.17;99757.66;7793392;32;37148;-81
2023/06/15 05:51:16;;;;;;;6.53;3.83;;;;;;;18.28;54.48;99754.47;7793374;32;39327;-81
2023/06/15 05:55:33;;;;;;;7.60;3.70;;;;;;;18.37;53.46;99754.47;7779351;32;39948;-79
2023/06/15 05:59:49;;;;;;;10.30;3.80;;;;;;;18.37;51.95;99746.19;7792689;32;38064;-73
2023/06/15 06:04:06;;;;;;;7.37;3.92;;;;;;;18.52;52.52;99750.41;7791300;32;37099;-75
2023/06/15 06:08:23;;;;;;;7.28;3.85;;;;;;;18.86;51.84;99748.75;7792120;32;39288;-79
2023/06/15 06:12:39;;;;;;;6.95;3.58;;;;;;;19.04;52.85;99750.34;7792820;32;40058;-73
2023/06/15 06:16:56;;;;;;;8.27;3.72;;;;;;;18.70;54.37;99754.78;7791600;32;37850;-73
2023/06/15 06:21:12;;;;;;;6.97;3.28;;;;;;;18.88;54.59;99763.03;7788766;32;37106;-75
2023/06/15 06:25:29;;;;;;;8.30;4.00;;;;;;;19.02;53.92;99757.31;7791129;32;40040;-76
2023/06/15 06:29:45;;;;;;;11.05;3.70;;;;;;;18.81;54.50;99768.25;7771819;32;176602;-76
2023/06/15 06:34:02;;;;;;;6.93;3.92;;;;;;;19.18;53.59;99765.88;7791961;32;38690;-77
2023/06/15 06:38:18;;;;;;;12.10;3.75;;;;;;;19.13;53.83;99767.69;7778590;32;37104;-76
2023/06/15 06:42:35;;;;;;;7.62;3.30;;;;;;;19.48;53.51;99764.00;7787895;32;40041;-76
2023/06/15 06:46:51;;;;;;;9.25;3.70;;;;;;;19.67;52.24;99761.62;7792201;32;40885;-76
2023/06/15 06:51:08;;;;;;;9.98;3.40;;;;;;;20.06;52.14;99761.59;7792426;32;36272;-77
2023/06/15 06:55:24;;;;;;;10.57;3.75;;;;;;;20.18;50.28;99775.50;7791793;32;37567;-75
2023/06/15 06:59:40;;;;;;;9.38;3.20;;;;;;;20.38;49.69;99770.28;7780663;32;39313;-78
2023/06/15 07:03:59;;;;;;;8.35;3.50;;;;;;;20.36;50.07;99767.06;7786899;32;39747;-79
2023/06/15 07:08:16;;;;;;;9.10;3.67;;;;;;;20.66;49.99;99765.00;7787210;32;37899;-77
2023/06/15 07:12:32;;;;;;;12.23;3.67;;;;;;;20.63;50.18;99765.72;7788824;32;37901;-78
2023/06/15 07:16:49;;;;;;;6.05;3.45;;;;;;;20.86;49.37;99762.56;7784900;32;40020;-78
2023/06/15 07:21:06;;;;;;;7.50;3.83;;;;;;;20.79;48.68;99758.38;7784511;32;40889;-77
2023/06/15 07:25:22;;;;;;;5.82;3.45;;;;;;;21.09;48.51;99760.19;7786358;32;37953;-79
2023/06/15 07:29:39;;;;;;;5.35;3.28;;;;;;;21.33;48.12;99759.41;7787779;32;37097;-80
2023/06/15 07:33:56;;;;;;;7.15;3.97;;;;;;;21.48;46.46;99746.88;7764310;32;39096;-79
2023/06/15 07:38:15;;;;;;;10.85;3.55;;;;;;;21.44;46.96;99746.72;7791277;32;40797;-80
2023/06/15 07:42:31;;;;;;;10.40;3.62;;;;;;;21.48;45.21;99755.19;7791778;32;37552;-78
2023/06/15 07:46:48;;;;;;;7.00;3.67;;;;;;;21.75;44.79;99748.94;7791790;32;37083;-80
2023/06/15 07:51:04;;;;;;;7.22;3.35;;;;;;;21.91;42.26;99751.00;7778123;32;40172;-80
2023/06/15 07:55:21;;;;;;;5.47;3.42;;;;;;;22.16;42.06;99745.41;7791301;32;41141;-80
2023/06/15 07:59:37;;;;;;;5.90;3.15;;;;;;;22.07;39.63;99740.00;7791854;32;38700;-80
2023/06/15 08:03:54;;;;;;;6.85;3.62;;;;;;;22.11;39.43;99736.16;7791150;32;37014;-80
2023/06/15 08:08:11;;;;;;;10.63;3.70;;;;;;;22.43;39.85;99733.53;7791456;32;39427;-80
2023/06/15 08:12:27;;;;;;;5.80;3.55;;;;;;;22.66;40.05;99736.59;7791637;32;39639;-81
2023/06/15 08:16:43;;;;;;;9.77;3.53;;;;;;;22.34;39.91;99734.87;7791061;32;38007;-81
2023/06/15 08:21:00;;;;;;;7.30;3.72;;;;;;;22.49;40.92;99732.13;7775248;32;37349;-82
2023/06/15 08:25:17;;;;;;;17.25;4.18;;;;;;;22.72;41.62;99739.91;7788445;32;40656;-81
2023/06/15 08:29:33;;;;;;;12.57;3.85;;;;;;;22.54;40.66;99730.25;7776678;32;39785;-81
2023/06/15 08:33:49;;;;;;;8.90;3.75;;;;;;;22.98;39.46;99725.50;7776247;32;38729;-81
2023/06/15 08:38:06;;;;;;;8.85;3.47;;;;;;;22.80;39.29;99729.78;7790587;32;36838;-81
2023/06/15 08:42:25;;;;;;;6.75;3.83;;;;;;;22.71;37.00;99724.38;7790952;32;39472;-81
2023/06/15 08:46:42;;;;;;;6.97;3.92;;;;;;;23.38;37.38;99719.00;7776880;32;40740;-81
2023/06/15 08:50:58;;;;;;;6.93;3.50;;;;;;;23.60;36.12;99728.66;7776827;32;38848;-81
2023/06/15 08:55:16;;;;;;;8.35;4.10;;;;;;;23.54;36.04;99730.12;7790046;32;37899;-81
2023/06/15 08:59:32;;;;;;;6.05;3.10;;;;;;;23.30;38.33;99727.53;7768438;32;39456;-81
2023/06/15 09:03:55;;;;;;;12.80;3.75;;;;;;;23.27;37.88;99725.44;7763417;32;39941;-81
2023/06/15 09:08:12;;;;;;;13.48;3.92;;;;;;;23.57;37.64;99721.03;7763062;32;37862;-81
2023/06/15 09:12:28;;;;;;;5.85;3.15;;;;;;;24.16;35.91;99724.78;7768451;32;37173;-80
2023/06/15 09:16:46;;;;;;;9.57;3.78;;;;;;;24.03;36.32;99722.50;7791873;32;40187;-81
2023/06/15 09:21:02;;;;;;;6.30;3.47;;;;;;;24.34;37.62;99716.00;7793841;32;39877;-81
2023/06/15 09:25:21;;;;;;;10.23;3.90;;;;;;;24.02;38.42;99718.09;7793179;32;37846;-81
2023/06/15 09:29:37;;;;;;;5.50;3.37;;;;;;;24.23;37.65;99712.97;7773571;32;37553;-81
2023/06/15 09:34:05;;;;;;;19.23;4.55;;;;;;;23.97;36.17;99713.59;7792218;32;40294;-80
2023/06/15 09:38:21;;;;;;;10.13;4.07;;;;;;;24.00;36.95;99713.69;7791772;32;40628;-81
2023/06/15 09:42:40;;;;;;;6.80;3.47;;;;;;;24.70;36.35;99706.38;7790945;32;37890;-80
2023/06/15 09:47:01;;;;;;;5.95;3.20;;;;;;;24.30;32.99;99701.16;7776411;32;38939;-79
2023/06/15 09:51:20;;;;;;;6.75;3.17;;;;;;;24.83;31.30;99703.41;7775531;32;40122;-79
2023/06/15 09:55:37;;;;;;;5.95;3.33;;;;;;;24.89;30.42;99696.37;7790359;32;40857;-79
2023/06/15 09:59:53;;;;;;;5.53;3.53;;;;;;;25.05;32.05;99682.31;7789925;32;37536;-80
2023/06/15 10:04:10;;;;;;;8.02;3.50;;;;;;;25.43;32.69;99680.56;7790464;32;37543;-80
2023/06/15 10:08:30;;;;;;;6.82;3.78;;;;;;;25.05;31.96;99688.69;7792002;32;39010;-80
2023/06/15 10:12:51;;;;;;;5.25;3.08;;;;;;;25.04;34.46;99691.84;7792525;32;40848;-80
2023/06/15 10:17:10;;;;;;;5.75;3.37;;;;;;;25.41;30.97;99680.91;7778989;32;37946;-80
2023/06/15 10:21:28;;;;;;;5.85;3.25;;;;;;;24.81;32.01;99675.91;7779589;32;38006;-80
2023/06/15 10:25:45;;;;;;;7.20;3.12;;;;;;;25.53;32.69;99685.50;7777889;32;38636;-78
2023/06/15 10:30:15;;;;;;;4.43;2.72;;;;;;;25.53;32.61;99673.53;7787874;32;39619;-77
2023/06/15 10:34:38;;;;;;;6.07;2.80;;;;;;;26.23;27.21;99672.09;7764120;32;38726;-84
2023/06/15 10:39:08;;;;;;;5.33;2.90;;;;;;;26.27;26.01;99672.13;7777857;32;37032;-86
2023/06/15 10:43:28;;;;;;;5.22;2.50;;;;;;;26.36;25.40;99675.44;7790593;32;39233;-84
2023/06/15 10:47:50;;;;;;;5.75;3.17;;;;;;;27.11;22.33;99667.81;7788596;32;40861;-81
2023/06/15 10:52:12;;;;;;;5.72;3.05;;;;;;;26.52;27.46;99667.63;7777618;32;37562;-81
2023/06/15 10:56:28;;;;;;;10.05;3.35;;;;;;;25.96;28.84;99671.38;7792624;32;37912;-81
2023/06/15 11:01:03;;;;;;;7.65;2.80;;;;;;;26.14;30.26;99664.00;7792184;32;38976;-85
2023/06/15 11:05:21;;;;;;;7.15;2.97;;;;;;;25.86;29.24;99662.41;7790015;32;40686;-83
2023/06/15 11:09:40;;;;;;;5.05;2.80;;;;;;;26.39;29.21;99663.50;7788776;32;36845;-83
2023/06/15 11:14:04;;;;;;;4.15;2.83;;;;;;;25.95;26.67;99661.38;7775674;32;38791;-85
2023/06/15 11:18:21;;;;;;;5.20;2.80;;;;;;;25.99;25.44;99659.41;7789265;32;38578;-83
2023/06/15 11:22:38;;;;;;;5.07;2.45;;;;;;;26.22;27.03;99654.53;7789159;32;39699;-83
2023/06/15 11:26:55;;;;;;;5.78;2.60;;;;;;;25.97;25.01;99653.41;7789261;32;39165;-83
2023/06/15 11:31:13;;;;;;;7.22;2.60;;;;;;;26.32;25.94;99653.03;7788760;32;37855;-85
2023/06/15 11:35:30;;;;;;;3.30;2.12;;;;;;;26.16;22.97;99646.84;7775918;32;39250;-85
2023/06/15 11:39:46;;;;;;;7.28;2.80;;;;;;;26.57;26.83;99647.72;7784451;32;39303;-84
2023/06/15 11:44:08;;;;;;;3.50;2.20;;;;;;;27.06;24.68;99651.41;7774807;32;38630;-86
2023/06/15 11:48:25;;;;;;;7.40;2.97;;;;;;;26.39;23.10;99658.72;7789921;32;36809;-84
2023/06/15 11:52:46;;;;;;;6.03;2.65;;;;;;;26.34;25.07;99659.06;7791355;32;39375;-84
2023/06/15 11:57:02;;;;;;;4.43;2.62;;;;;;;27.28;25.53;99645.97;7791376;32;39440;-85
2023/06/15 12:01:20;;;;;;;6.28;3.17;;;;;;;27.12;24.13;99646.25;7789322;32;38129;-85
2023/06/15 12:05:40;;;;;;;3.58;2.40;;;;;;;27.33;23.04;99637.22;7778119;32;37353;-86
2023/06/15 12:10:00;;;;;;;6.20;3.03;;;;;;;27.78;26.46;99631.50;7788127;32;40005;-84
2023/06/15 12:14:20;;;;;;;5.32;2.87;;;;;;;28.52;26.70;99632.97;7770018;32;40956;-84
2023/06/15 12:18:37;;;;;;;17.98;4.45;;;;;;;29.33;24.92;99613.78;7791038;32;38880;-84
2023/06/15 12:22:53;;;;;;;3.35;2.40;;;;;;;29.82;25.90;99622.53;7790556;32;37770;-85
2023/06/15 12:27:15;;;;;;;5.10;2.55;;;;;;;29.54;22.09;99612.13;7791204;32;39266;-85
2023/06/15 12:31:33;;;;;;;5.85;3.00;;;;;;;28.55;22.64;99626.59;7777219;32;40849;-87
2023/06/15 12:35:51;;;;;;;6.37;3.10;;;;;;;27.20;24.33;99614.34;7776717;32;38703;-84
2023/06/15 12:40:09;;;;;;;6.85;3.37;;;;;;;28.16;25.46;99610.44;7790916;32;37295;-84
2023/06/15 12:44:26;;;;;;;5.47;2.40;;;;;;;28.36;25.31;99607.31;7791022;32;40115;-83
2023/06/15 12:48:43;;;;;;;3.83;2.62;;;;;;;28.84;25.63;99607.78;7790534;32;41268;-81
2023/06/15 12:53:00;;;;;;;5.60;2.78;;;;;;;28.28;22.38;99604.47;7794333;32;37881;-80
2023/06/15 12:57:17;;;;;;;5.22;2.80;;;;;;;29.05;22.85;99592.16;7794205;32;38213;-80
2023/06/15 13:01:34;;;;;;;4.18;2.50;;;;;;;28.35;22.98;99589.69;7794096;32;39475;-79
2023/06/15 13:05:50;;;;;;;5.30;2.92;;;;;;;28.00;22.64;99588.41;7794074;32;40888;-79
2023/06/15 13:10:08;;;;;;;5.90;3.20;;;;;;;27.92;23.48;99595.16;7793982;32;39222;-79
2023/06/15 13:14:25;;;;;;;4.40;2.62;;;;;;;27.91;24.95;99587.94;7794005;32;37786;-79
2023/06/15 13:18:41;;;;;;;4.68;2.70;;;;;;;28.28;24.24;99584.06;7794021;32;39176;-80
2023/06/15 13:22:58;;;;;;;3.92;2.50;;;;;;;29.23;23.06;99580.13;7793810;32;39892;-79
2023/06/15 13:27:15;;;;;;;4.35;2.75;;;;;;;29.24;23.16;99571.31;7793778;32;38129;-79
2023/06/15 13:31:35;;;;;;;5.12;2.60;;;;;;;29.11;20.86;99562.47;7793777;32;36898;-80
2023/06/15 13:35:54;;;;;;;4.53;2.53;;;;;;;29.04;22.39;99562.47;7793770;32;39967;-80
2023/06/15 13:40:11;;;;;;;3.70;2.58;;;;;;;29.00;22.61;99556.09;7793750;32;39996;-80
2023/06/15 13:44:27;;;;;;;6.47;2.83;;;;;;;28.92;21.78;99566.50;7793560;32;37640;-79
2023/06/15 13:48:43;;;;;;;4.03;2.62;;;;;;;28.64;23.24;99565.31;7792475;32;36904;-82
2023/06/15 13:53:00;;;;;;;4.28;2.70;;;;;;;28.77;21.37;99553.69;7790667;32;39613;-81
2023/06/15 13:57:17;;;;;;;7.95;2.50;;;;;;;28.56;21.85;99551.69;7790238;32;39928;-82
2023/06/15 14:01:34;;;;;;;3.47;2.60;;;;;;;29.29;22.53;99547.66;7775364;32;37727;-82
2023/06/15 14:05:51;;;;;;;3.40;2.45;;;;;;;29.73;22.19;99537.84;7790275;32;38101;-81
2023/06/15 14:10:08;;;;;;;4.72;2.65;;;;;;;29.35;20.88;99537.59;7792866;32;38153;-81
2023/06/15 14:14:26;;;;;;;5.10;2.45;;;;;;;30.09;23.01;99532.84;7793264;32;39882;-82
2023/06/15 14:18:42;;;;;;;9.80;3.08;;;;;;;30.70;19.85;99540.88;7793135;32;37988;-81
2023/06/15 14:22:59;;;;;;;3.87;2.45;;;;;;;31.14;21.29;99529.22;7793228;32;37545;-82
2023/06/15 14:27:16;;;;;;;4.93;2.35;;;;;;;30.21;23.31;99527.97;7793320;32;38162;-80
2023/06/15 14:31:32;;;;;;;5.20;2.90;;;;;;;30.44;20.79;99528.25;7792828;32;39941;-81
2023/06/15 14:35:51;;;;;;;4.28;2.17;;;;;;;30.96;20.49;99529.41;7793065;32;37613;-82
2023/06/15 14:40:08;;;;;;;5.10;2.33;;;;;;;31.62;19.58;99522.66;7792721;32;36907;-82
2023/06/15 14:44:24;;;;;;;3.17;2.10;;;;;;;31.65;18.20;99519.00;7792766;32;39424;-80
2023/06/15 14:48:41;;;;;;;6.82;2.50;;;;;;;31.59;17.34;99520.69;7792876;32;40078;-81
2023/06/15 14:52:59;;;;;;;3.55;2.33;;;;;;;30.80;21.34;99532.75;7792801;32;38750;-80
2023/06/15 14:57:15;;;;;;;3.72;2.35;;;;;;;30.49;20.28;99529.78;7791279;32;37063;-80
2023/06/15 15:01:31;;;;;;;4.37;2.40;;;;;;;29.97;19.79;99527.72;7792011;32;39964;-80
2023/06/15 15:05:48;;;;;;;5.12;2.45;;;;;;;29.72;20.56;99522.22;7788911;32;40777;-80
2023/06/15 15:10:04;;;;;;;3.92;2.28;;;;;;;29.59;21.08;99524.66;7792264;32;37988;-81
2023/06/15 15:14:21;;;;;;;4.28;2.30;;;;;;;29.21;21.19;99516.75;7788027;32;37025;-80
2023/06/15 15:18:39;;;;;;;3.50;2.25;;;;;;;29.19;21.11;99512.78;7791994;32;39902;-81
2023/06/15 15:22:55;;;;;;;2.90;1.85;;;;;;;29.23;21.79;99515.56;7785795;32;40547;-81
2023/06/15 15:27:12;;;;;;;3.50;2.10;;;;;;;28.71;20.67;99514.03;7787681;32;37640;-81
2023/06/15 15:31:28;;;;;;;3.12;1.98;;;;;;;29.12;20.30;99502.34;7791989;32;38142;-81
2023/06/15 15:35:45;;;;;;;2.37;2.00;;;;;;;29.00;20.08;99500.75;7792161;32;39054;-81
2023/06/15 15:40:01;;;;;;;5.40;2.53;;;;;;;28.82;21.43;99495.19;7788149;32;39739;-81
2023/06/15 15:44:18;;;;;;;3.58;2.20;;;;;;;29.21;22.48;99505.53;7792011;32;37905;-82
2023/06/15 15:48:34;;;;;;;3.50;2.35;;;;;;;28.79;20.30;99507.22;7778234;32;37242;-82
2023/06/15 15:52:51;;;;;;;3.95;2.53;;;;;;;28.88;20.12;99497.59;7781175;32;39526;-82
2023/06/15 15:57:08;;;;;;;2.78;2.10;;;;;;;29.03;21.91;99499.16;7786453;32;39593;-82
2023/06/15 16:01:27;;;;;;;4.30;2.40;;;;;;;29.27;20.10;99491.09;7790173;32;37450;-81
2023/06/15 16:05:44;;;;;;;5.57;2.50;;;;;;;28.88;20.16;99503.19;7791060;32;37898;-81
2023/06/15 16:10:01;;;;;;;5.35;2.30;;;;;;;29.03;20.28;99493.56;7791635;32;40198;-82
2023/06/15 16:14:17;;;;;;;4.28;2.20;;;;;;;28.54;20.60;99501.59;7790846;32;40512;-81
2023/06/15 16:18:34;;;;;;;4.60;2.30;;;;;;;29.21;20.47;99494.31;7791502;32;38674;-82
2023/06/15 16:22:51;;;;;;;2.78;2.03;;;;;;;28.85;21.11;99487.97;7776715;32;37764;-82
2023/06/15 16:27:08;;;;;;;3.95;2.58;;;;;;;29.01;22.55;99488.34;7790922;32;39310;-80
2023/06/15 16:31:25;;;;;;;4.25;2.40;;;;;;;29.08;19.42;99492.31;7790842;32;40933;-81
2023/06/15 16:35:42;;;;;;;6.45;2.37;;;;;;;29.15;21.07;99487.50;7790658;32;37822;-81
2023/06/15 16:40:01;;;;;;;3.70;2.00;;;;;;;29.15;20.13;99492.31;7791158;32;37827;-81
2023/06/15 16:44:18;;;;;;;2.75;2.00;;;;;;;29.24;20.32;99481.50;7790235;32;40275;-80
2023/06/15 16:48:35;;;;;;;6.78;2.45;;;;;;;28.99;19.62;99487.12;7791051;32;40005;-81
2023/06/15 16:52:51;;;;;;;3.87;2.22;;;;;;;28.99;19.64;99487.94;7790272;32;37774;-81
2023/06/15 16:57:09;;;;;;;4.53;2.17;;;;;;;28.47;19.57;99496.78;7790231;32;37355;-81
2023/06/15 17:01:26;;;;;;;4.10;2.22;;;;;;;28.38;21.06;99487.97;7790493;32;39375;-81
2023/06/15 17:05:43;;;;;;;4.25;2.40;;;;;;;28.21;20.12;99494.38;7776089;32;39911;-81
2023/06/15 17:10:01;;;;;;;4.25;2.60;;;;;;;27.91;20.70;99498.31;7790285;32;37947;-82
2023/06/15 17:14:18;;;;;;;5.70;2.42;;;;;;;27.85;20.76;99505.47;7789463;32;37168;-81
2023/06/15 17:18:35;;;;;;;4.62;2.53;;;;;;;27.79;22.01;99504.28;7790317;32;39349;-81
2023/06/15 17:22:51;;;;;;;5.43;2.53;;;;;;;27.65;23.62;99503.03;7789584;32;40059;-81
2023/06/15 17:27:11;;;;;;;3.92;2.47;;;;;;;27.68;25.98;99509.81;7787692;32;38836;-81
2023/06/15 17:31:28;;;;;;;3.40;2.10;;;;;;;27.64;26.86;99504.22;7786883;32;37064;-81
2023/06/15 17:35:44;;;;;;;5.20;2.53;;;;;;;27.41;27.81;99514.94;7788427;32;40138;-81
2023/06/15 17:40:01;;;;;;;4.60;2.40;;;;;;;27.41;27.94;99504.53;7778513;32;40822;-81
2023/06/15 17:44:19;;;;;;;5.78;2.37;;;;;;;27.39;26.81;99501.34;7786825;32;38018;-80
2023/06/15 17:48:36;;;;;;;4.72;2.50;;;;;;;27.15;27.35;99497.19;7793175;32;37816;-81
2023/06/15 17:52:53;;;;;;;3.00;2.10;;;;;;;27.20;27.94;99505.22;7791633;32;40223;-81
2023/06/15 17:57:10;;;;;;;3.90;2.37;;;;;;;26.89;27.44;99507.41;7793187;32;39826;-81
2023/06/15 18:01:26;;;;;;;8.82;2.20;;;;;;;26.85;27.42;99506.56;7793345;32;38816;-81
2023/06/15 18:05:43;;;;;;;4.75;2.17;;;;;;;26.83;26.68;99503.38;7778861;32;37053;-82
2023/06/15 18:09:59;;;;;;;4.78;2.30;;;;;;;26.50;27.57;99507.88;7793243;32;39013;-81
2023/06/15 18:14:16;;;;;;;6.95;2.35;;;;;;;26.48;27.22;99509.47;7793026;32;40057;-81
2023/06/15 18:18:33;;;;;;;3.62;2.10;;;;;;;26.53;26.34;99509.91;7793290;32;37858;-82
2023/06/15 18:22:50;;;;;;;10.07;2.90;;;;;;;26.40;27.53;99505.81;7793156;32;37802;-81
2023/06/15 18:27:06;;;;;;;6.53;3.08;;;;;;;26.27;28.24;99510.91;7792090;32;40142;-79
2023/06/15 18:31:22;;;;;;;4.28;2.40;;;;;;;25.94;31.91;99509.78;7790397;32;41007;-79
2023/06/15 18:35:39;;;;;;;16.73;3.60;;;;;;;25.76;32.51;99515.13;7812114;32;37253;-79
2023/06/15 18:39:55;;;;;;;6.60;2.83;;;;;;;25.64;33.83;99518.16;7765855;32;36811;-81
2023/06/15 18:44:12;;;;;;;5.57;2.83;;;;;;;25.32;35.23;99524.16;7785642;32;39412;-80
2023/06/15 18:48:28;;;;;;;4.20;2.70;;;;;;;25.09;35.22;99526.97;7792195;32;39999;-79
2023/06/15 18:52:45;;;;;;;5.72;2.90;;;;;;;24.88;36.01;99524.69;7777966;32;37834;-81
2023/06/15 18:57:01;;;;;;;6.57;2.97;;;;;;;24.89;35.79;99517.94;7792335;32;37635;-79
2023/06/15 19:01:17;;;;;;;10.88;3.30;;;;;;;24.60;36.04;99525.06;7778246;32;39392;-80
2023/06/15 19:05:35;;;;;;;6.12;3.22;;;;;;;24.52;36.43;99521.28;7792526;32;39980;-80
2023/06/15 19:09:51;;;;;;;7.10;3.53;;;;;;;24.23;35.92;99536.72;7791792;32;38067;-80
2023/06/15 19:14:08;;;;;;;6.97;3.30;;;;;;;24.11;36.22;99544.06;7775801;32;37801;-82
2023/06/15 19:18:25;;;;;;;6.20;2.97;;;;;;;24.02;37.42;99548.25;7790329;32;40229;-82
2023/06/15 19:22:42;;;;;;;7.15;3.40;;;;;;;23.83;38.34;99563.78;7791783;32;40889;-85
2023/06/15 19:26:59;;;;;;;5.10;3.10;;;;;;;23.73;38.77;99561.56;7767254;32;36895;-80
2023/06/15 19:31:16;;;;;;;7.90;3.20;;;;;;;23.46;39.09;99566.97;7781118;32;36644;-80
2023/06/15 19:35:39;;;;;;;4.50;2.80;;;;;;;23.40;39.54;99565.66;7790455;32;39211;-80
2023/06/15 19:39:56;;;;;;;6.25;3.15;;;;;;;23.20;39.61;99567.59;7790508;32;40058;-79
2023/06/15 19:44:12;;;;;;;8.77;3.10;;;;;;;23.11;39.61;99575.31;7790485;32;38011;-81
2023/06/15 19:48:29;;;;;;;5.53;2.92;;;;;;;22.95;40.03;99578.09;7780508;32;38096;-79
2023/06/15 19:52:45;;;;;;;5.10;2.83;;;;;;;22.66;40.80;99585.72;7765840;32;39179;-80
2023/06/15 19:57:07;;;;;;;4.68;2.67;;;;;;;22.68;40.86;99577.84;7787434;32;40744;-80
2023/06/15 20:01:24;;;;;;;6.20;3.05;;;;;;;22.41;41.47;99577.56;7789980;32;37261;-80
2023/06/15 20:05:40;;;;;;;5.87;3.03;;;;;;;22.35;41.64;99580.97;7790037;32;37046;-80
2023/06/15 20:09:56;;;;;;;5.93;3.00;;;;;;;22.15;42.69;99578.03;7789679;32;40142;-82